sensor_id;sensor_type;location;lat;lon;timestamp;pressure;altitude;pressure_sealevel;temperature;humidity
39789;BME280;25478;42.626;23.320;2022-10-31T00:00:57;93612.72;;;14.32;50.93
39789;BME280;25478;42.626;23.320;2022-10-31T00:03:23;93569.66;;;14.10;50.94
39789;BME280;25478;42.626;23.320;2022-10-31T00:05:49;93599.13;;;14.26;51.37
39789;BME280;25478;42.626;23.320;2022-10-31T00:08:16;93560.63;;;14.00;51.42
39789;BME280;25478;42.626;23.320;2022-10-31T00:10:43;93582.13;;;14.17;51.74
39789;BME280;25478;42.626;23.320;2022-10-31T00:13:09;93555.72;;;13.95;52.08
39789;BME280;25478;42.626;23.320;2022-10-31T00:15:37;93582.53;;;14.01;52.17
39789;BME280;25478;42.626;23.320;2022-10-31T00:18:03;93581.41;;;14.02;52.09
39789;BME280;25478;42.626;23.320;2022-10-31T00:20:30;93550.09;;;13.75;52.37
39789;BME280;25478;42.626;23.320;2022-10-31T00:23:02;93579.91;;;13.94;52.58
39789;BME280;25478;42.626;23.320;2022-10-31T00:25:29;93577.69;;;13.82;52.78
39789;BME280;25478;42.626;23.320;2022-10-31T00:27:55;93575.44;;;13.73;53.40
39789;BME280;25478;42.626;23.320;2022-10-31T00:30:20;93575.47;;;13.62;53.41
39789;BME280;25478;42.626;23.320;2022-10-31T00:32:46;93571.69;;;13.56;53.46
39789;BME280;25478;42.626;23.320;2022-10-31T00:35:11;93581.88;;;13.58;54.06
39789;BME280;25478;42.626;23.320;2022-10-31T00:37:37;93587.16;;;13.58;54.10
39789;BME280;25478;42.626;23.320;2022-10-31T00:40:03;93575.84;;;13.46;54.25
39789;BME280;25478;42.626;23.320;2022-10-31T00:42:30;93583.75;;;13.53;55.08
39789;BME280;25478;42.626;23.320;2022-10-31T00:44:57;93539.94;;;13.17;54.76
39789;BME280;25478;42.626;23.320;2022-10-31T00:47:22;93562.63;;;13.29;54.91
39789;BME280;25478;42.626;23.320;2022-10-31T00:49:48;93575.84;;;13.32;55.07
39789;BME280;25478;42.626;23.320;2022-10-31T00:52:13;93569.06;;;13.24;55.94
39789;BME280;25478;42.626;23.320;2022-10-31T00:54:39;93556.56;;;13.03;56.30
39789;BME280;25478;42.626;23.320;2022-10-31T00:57:05;93566.75;;;13.05;56.97
39789;BME280;25478;42.626;23.320;2022-10-31T00:59:30;93570.13;;;12.98;57.05
39789;BME280;25478;42.626;23.320;2022-10-31T01:01:56;93561.81;;;12.82;57.31
39789;BME280;25478;42.626;23.320;2022-10-31T01:04:21;93561.81;;;12.75;58.07
39789;BME280;25478;42.626;23.320;2022-10-31T01:06:48;93561.41;;;12.69;58.26
39789;BME280;25478;42.626;23.320;2022-10-31T01:09:15;93570.88;;;12.70;59.19
39789;BME280;25478;42.626;23.320;2022-10-31T01:11:40;93575.38;;;12.62;59.51
39789;BME280;25478;42.626;23.320;2022-10-31T01:14:08;93574.97;;;12.53;60.06
39789;BME280;25478;42.626;23.320;2022-10-31T01:16:33;93557.50;;;12.27;60.42
39789;BME280;25478;42.626;23.320;2022-10-31T01:18:59;93571.88;;;12.30;61.27
39789;BME280;25478;42.626;23.320;2022-10-31T01:21:28;93593.00;;;12.33;61.64
39789;BME280;25478;42.626;23.320;2022-10-31T01:23:57;93572.56;;;12.13;62.15
39789;BME280;25478;42.626;23.320;2022-10-31T01:26:29;93557.00;;;11.90;62.34
39789;BME280;25478;42.626;23.320;2022-10-31T01:29:08;93594.38;;;12.02;62.92
39789;BME280;25478;42.626;23.320;2022-10-31T01:31:37;93574.28;;;11.80;63.40
39789;BME280;25478;42.626;23.320;2022-10-31T01:34:04;93592.84;;;11.94;63.73
39789;BME280;25478;42.626;23.320;2022-10-31T01:36:35;93603.81;;;12.03;63.57
39789;BME280;25478;42.626;23.320;2022-10-31T01:39:06;93589.13;;;12.06;63.03
39789;BME280;25478;42.626;23.320;2022-10-31T01:41:35;93578.22;;;12.11;62.58
39789;BME280;25478;42.626;23.320;2022-10-31T01:49:24;93596.50;;;12.77;61.00
39789;BME280;25478;42.626;23.320;2022-10-31T01:52:00;93602.63;;;12.95;60.39
39789;BME280;25478;42.626;23.320;2022-10-31T01:54:31;93589.78;;;12.97;59.73
39789;BME280;25478;42.626;23.320;2022-10-31T01:56:59;93554.66;;;12.89;59.94
39789;BME280;25478;42.626;23.320;2022-10-31T01:59:28;93592.84;;;13.20;59.68
39789;BME280;25478;42.626;23.320;2022-10-31T02:01:55;93603.03;;;13.33;58.99
39789;BME280;25478;42.626;23.320;2022-10-31T02:04:22;93575.09;;;13.21;58.93
39789;BME280;25478;42.626;23.320;2022-10-31T02:06:59;93576.97;;;13.28;58.68
39789;BME280;25478;42.626;23.320;2022-10-31T02:09:29;93598.50;;;13.44;58.96
39789;BME280;25478;42.626;23.320;2022-10-31T02:11:58;93583.03;;;13.46;58.58
39789;BME280;25478;42.626;23.320;2022-10-31T02:14:26;93586.78;;;13.45;58.73
39789;BME280;25478;42.626;23.320;2022-10-31T02:16:53;93569.03;;;13.35;58.90
39789;BME280;25478;42.626;23.320;2022-10-31T02:19:59;93556.97;;;13.30;58.25
39789;BME280;25478;42.626;23.320;2022-10-31T02:28:29;93601.50;;;13.53;58.63
39789;BME280;25478;42.626;23.320;2022-10-31T02:33:53;93609.09;;;13.51;58.82
39789;BME280;25478;42.626;23.320;2022-10-31T02:39:18;93623.44;;;13.43;59.14
39789;BME280;25478;42.626;23.320;2022-10-31T02:44:58;93638.94;;;13.30;59.44
39789;BME280;25478;42.626;23.320;2022-10-31T02:47:34;93621.91;;;13.13;59.60
39789;BME280;25478;42.626;23.320;2022-10-31T02:50:12;93644.94;;;13.20;60.10
39789;BME280;25478;42.626;23.320;2022-10-31T02:52:39;93617.31;;;13.00;60.67
39789;BME280;25478;42.626;23.320;2022-10-31T02:55:42;93623.00;;;13.05;60.51
39789;BME280;25478;42.626;23.320;2022-10-31T02:58:17;93631.31;;;13.07;61.06
39789;BME280;25478;42.626;23.320;2022-10-31T03:06:33;93634.69;;;12.86;62.51
39789;BME280;25478;42.626;23.320;2022-10-31T03:12:13;93638.41;;;12.75;62.61
39789;BME280;25478;42.626;23.320;2022-10-31T03:17:22;93635.00;;;12.71;63.29
39789;BME280;25478;42.626;23.320;2022-10-31T03:19:53;93617.97;;;12.61;63.47
39789;BME280;25478;42.626;23.320;2022-10-31T03:22:23;93589.63;;;12.44;63.54
39789;BME280;25478;42.626;23.320;2022-10-31T03:24:49;93592.69;;;12.46;63.52
39789;BME280;25478;42.626;23.320;2022-10-31T03:27:23;93632.38;;;12.71;63.58
39789;BME280;25478;42.626;23.320;2022-10-31T03:29:50;93605.13;;;12.52;63.70
39789;BME280;25478;42.626;23.320;2022-10-31T03:32:34;93633.09;;;12.67;63.51
39789;BME280;25478;42.626;23.320;2022-10-31T03:35:02;93640.63;;;12.55;63.67
39789;BME280;25478;42.626;23.320;2022-10-31T03:37:31;93615.28;;;12.43;63.87
39789;BME280;25478;42.626;23.320;2022-10-31T03:40:00;93645.16;;;12.65;63.45
39789;BME280;25478;42.626;23.320;2022-10-31T03:42:31;93628.19;;;12.62;63.49
39789;BME280;25478;42.626;23.320;2022-10-31T03:45:04;93598.69;;;12.39;63.62
39789;BME280;25478;42.626;23.320;2022-10-31T03:47:32;93624.41;;;12.56;63.15
39789;BME280;25478;42.626;23.320;2022-10-31T03:49:59;93627.41;;;12.58;63.11
39789;BME280;25478;42.626;23.320;2022-10-31T03:52:36;93619.50;;;12.58;63.11
39789;BME280;25478;42.626;23.320;2022-10-31T03:55:15;93623.66;;;12.63;63.10
39789;BME280;25478;42.626;23.320;2022-10-31T03:57:56;93640.28;;;12.71;62.75
39789;BME280;25478;42.626;23.320;2022-10-31T04:00:24;93643.66;;;12.67;62.92
39789;BME280;25478;42.626;23.320;2022-10-31T04:03:05;93632.31;;;12.56;63.35
39789;BME280;25478;42.626;23.320;2022-10-31T04:05:34;93637.97;;;12.55;63.16
39789;BME280;25478;42.626;23.320;2022-10-31T04:08:04;93631.88;;;12.44;63.68
39789;BME280;25478;42.626;23.320;2022-10-31T04:10:32;93639.03;;;12.36;64.16
39789;BME280;25478;42.626;23.320;2022-10-31T04:13:06;93649.22;;;12.41;64.40
39789;BME280;25478;42.626;23.320;2022-10-31T04:15:44;93667.28;;;12.32;64.52
39789;BME280;25478;42.626;23.320;2022-10-31T04:18:10;93662.72;;;12.25;65.00
39789;BME280;25478;42.626;23.320;2022-10-31T04:20:38;93657.41;;;12.18;65.76
39789;BME280;25478;42.626;23.320;2022-10-31T04:23:05;93660.44;;;12.20;66.07
39789;BME280;25478;42.626;23.320;2022-10-31T04:25:36;93660.44;;;12.20;66.59
39789;BME280;25478;42.626;23.320;2022-10-31T04:28:02;93641.09;;;12.02;67.21
39789;BME280;25478;42.626;23.320;2022-10-31T04:30:27;93645.63;;;12.01;67.56
39789;BME280;25478;42.626;23.320;2022-10-31T04:32:53;93665.25;;;12.07;67.84
39789;BME280;25478;42.626;23.320;2022-10-31T04:35:20;93665.66;;;12.09;68.05
39789;BME280;25478;42.626;23.320;2022-10-31T04:37:45;93655.41;;;11.97;68.38
39789;BME280;25478;42.626;23.320;2022-10-31T04:40:12;93657.66;;;11.95;68.91
39789;BME280;25478;42.626;23.320;2022-10-31T04:42:55;93653.06;;;11.85;69.16
39789;BME280;25478;42.626;23.320;2022-10-31T04:45:21;93665.94;;;11.94;69.64
39789;BME280;25478;42.626;23.320;2022-10-31T04:47:50;93644.69;;;11.76;70.21
39789;BME280;25478;42.626;23.320;2022-10-31T04:50:16;93671.19;;;11.90;70.62
39789;BME280;25478;42.626;23.320;2022-10-31T04:52:44;93651.47;;;11.77;70.97
39789;BME280;25478;42.626;23.320;2022-10-31T04:55:13;93634.44;;;11.67;71.52
39789;BME280;25478;42.626;23.320;2022-10-31T04:57:57;93658.97;;;11.71;71.52
39789;BME280;25478;42.626;23.320;2022-10-31T05:00:25;93674.91;;;11.82;71.69
39789;BME280;25478;42.626;23.320;2022-10-31T05:02:53;93678.72;;;11.88;71.86
39789;BME280;25478;42.626;23.320;2022-10-31T05:05:22;93686.25;;;11.90;72.00
39789;BME280;25478;42.626;23.320;2022-10-31T05:07:49;93668.41;;;11.76;72.04
39789;BME280;25478;42.626;23.320;2022-10-31T05:10:19;93677.53;;;11.82;71.79
39789;BME280;25478;42.626;23.320;2022-10-31T05:12:47;93708.19;;;11.97;72.50
39789;BME280;25478;42.626;23.320;2022-10-31T05:15:36;93682.78;;;11.78;72.46
39789;BME280;25478;42.626;23.320;2022-10-31T05:18:10;93687.72;;;11.83;72.81
39789;BME280;25478;42.626;23.320;2022-10-31T05:20:57;93700.63;;;11.96;73.01
39789;BME280;25478;42.626;23.320;2022-10-31T05:23:43;93670.72;;;11.77;72.77
39789;BME280;25478;42.626;23.320;2022-10-31T05:26:08;93680.59;;;11.88;72.42
39789;BME280;25478;42.626;23.320;2022-10-31T05:28:34;93710.50;;;12.02;72.32
39789;BME280;25478;42.626;23.320;2022-10-31T05:31:00;93690.09;;;11.96;72.40
39789;BME280;25478;42.626;23.320;2022-10-31T05:33:26;93715.06;;;12.13;72.80
39789;BME280;25478;42.626;23.320;2022-10-31T05:35:51;93681.41;;;11.99;72.52
39789;BME280;25478;42.626;23.320;2022-10-31T05:38:43;93719.59;;;12.16;72.22
39789;BME280;25478;42.626;23.320;2022-10-31T05:41:28;93706.72;;;12.03;71.97
39789;BME280;25478;42.626;23.320;2022-10-31T05:44:02;93705.22;;;12.02;72.34
39789;BME280;25478;42.626;23.320;2022-10-31T05:46:31;93707.41;;;11.97;72.23
39789;BME280;25478;42.626;23.320;2022-10-31T05:49:25;93717.59;;;11.98;72.51
39789;BME280;25478;42.626;23.320;2022-10-31T05:51:53;93713.81;;;11.96;72.90
39789;BME280;25478;42.626;23.320;2022-10-31T05:54:25;93698.63;;;11.82;73.16
39789;BME280;25478;42.626;23.320;2022-10-31T05:56:50;93715.72;;;11.95;73.28
39789;BME280;25478;42.626;23.320;2022-10-31T05:59:17;93696.38;;;11.84;73.06
39789;BME280;25478;42.626;23.320;2022-10-31T06:01:43;93696.06;;;11.93;72.88
39789;BME280;25478;42.626;23.320;2022-10-31T06:04:24;93729.47;;;12.26;72.01
39789;BME280;25478;42.626;23.320;2022-10-31T06:06:50;93729.53;;;12.33;72.09
39789;BME280;25478;42.626;23.320;2022-10-31T06:09:15;93707.25;;;12.30;71.80
39789;BME280;25478;42.626;23.320;2022-10-31T06:11:42;93731.53;;;12.54;71.32
39789;BME280;25478;42.626;23.320;2022-10-31T06:14:08;93719.47;;;12.56;70.74
39789;BME280;25478;42.626;23.320;2022-10-31T06:16:54;93746.72;;;12.71;70.46
39789;BME280;25478;42.626;23.320;2022-10-31T06:19:39;93726.72;;;12.74;69.46
39789;BME280;25478;42.626;23.320;2022-10-31T06:22:04;93724.13;;;12.84;69.49
39789;BME280;25478;42.626;23.320;2022-10-31T06:24:31;93693.09;;;12.67;68.94
39789;BME280;25478;42.626;23.320;2022-10-31T06:27:04;93735.88;;;13.01;68.62
39789;BME280;25478;42.626;23.320;2022-10-31T06:29:31;93727.59;;;13.10;68.33
39789;BME280;25478;42.626;23.320;2022-10-31T06:32:02;93732.91;;;13.17;67.96
39789;BME280;25478;42.626;23.320;2022-10-31T06:34:29;93745.81;;;13.26;67.49
39789;BME280;25478;42.626;23.320;2022-10-31T06:36:54;93763.97;;;13.45;67.61
39789;BME280;25478;42.626;23.320;2022-10-31T06:39:24;93741.66;;;13.35;67.09
39789;BME280;25478;42.626;23.320;2022-10-31T06:41:49;93751.53;;;13.52;66.56
39789;BME280;25478;42.626;23.320;2022-10-31T06:44:18;93771.97;;;13.70;66.15
39789;BME280;25478;42.626;23.320;2022-10-31T06:46:52;93765.94;;;13.76;65.85
39789;BME280;25478;42.626;23.320;2022-10-31T06:49:38;93761.78;;;13.79;65.66
39789;BME280;25478;42.626;23.320;2022-10-31T06:52:10;93778.81;;;13.89;65.54
39789;BME280;25478;42.626;23.320;2022-10-31T06:54:36;93770.09;;;13.92;65.00
39789;BME280;25478;42.626;23.320;2022-10-31T06:57:02;93762.94;;;13.92;64.98
39789;BME280;25478;42.626;23.320;2022-10-31T06:59:28;93760.28;;;13.92;64.33
39789;BME280;25478;42.626;23.320;2022-10-31T07:02:13;93781.06;;;14.12;64.74
39789;BME280;25478;42.626;23.320;2022-10-31T07:04:41;93765.19;;;14.12;64.31
39789;BME280;25478;42.626;23.320;2022-10-31T07:07:07;93770.84;;;14.21;64.09
39789;BME280;25478;42.626;23.320;2022-10-31T07:09:34;93750.84;;;14.13;63.81
39789;BME280;25478;42.626;23.320;2022-10-31T07:12:02;93747.03;;;14.24;63.65
39789;BME280;25478;42.626;23.320;2022-10-31T07:14:30;93758.75;;;14.34;63.27
39789;BME280;25478;42.626;23.320;2022-10-31T07:16:56;93784.50;;;14.55;62.76
39789;BME280;25478;42.626;23.320;2022-10-31T07:19:29;93734.19;;;14.23;62.85
39789;BME280;25478;42.626;23.320;2022-10-31T07:21:54;93744.75;;;14.37;62.49
39789;BME280;25478;42.626;23.320;2022-10-31T07:24:24;93742.84;;;14.45;62.61
39789;BME280;25478;42.626;23.320;2022-10-31T07:27:24;93766.66;;;14.77;62.44
39789;BME280;25478;42.626;23.320;2022-10-31T07:29:50;93768.16;;;14.81;62.06
39789;BME280;25478;42.626;23.320;2022-10-31T07:32:16;93730.72;;;14.65;61.96
39789;BME280;25478;42.626;23.320;2022-10-31T07:34:49;93723.88;;;14.68;61.52
39789;BME280;25478;42.626;23.320;2022-10-31T07:37:22;93734.47;;;14.75;61.54
39789;BME280;25478;42.626;23.320;2022-10-31T07:39:49;93736.75;;;14.76;61.05
39789;BME280;25478;42.626;23.320;2022-10-31T07:42:15;93746.97;;;14.81;61.28
39789;BME280;25478;42.626;23.320;2022-10-31T07:44:43;93734.09;;;14.76;61.01
39789;BME280;25478;42.626;23.320;2022-10-31T07:47:48;93765.44;;;14.99;61.25
39789;BME280;25478;42.626;23.320;2022-10-31T07:50:33;93740.91;;;14.81;61.44
39789;BME280;25478;42.626;23.320;2022-10-31T07:53:19;93750.31;;;14.92;61.34
39789;BME280;25478;42.626;23.320;2022-10-31T07:55:49;93749.19;;;14.97;61.16
39789;BME280;25478;42.626;23.320;2022-10-31T07:58:16;93743.81;;;15.04;60.97
39789;BME280;25478;42.626;23.320;2022-10-31T08:00:45;93739.31;;;14.98;60.72
39789;BME280;25478;42.626;23.320;2022-10-31T08:03:16;93760.81;;;15.25;60.53
39789;BME280;25478;42.626;23.320;2022-10-31T08:06:02;93746.44;;;15.15;60.40
39789;BME280;25478;42.626;23.320;2022-10-31T08:09:06;93753.22;;;15.23;60.00
39789;BME280;25478;42.626;23.320;2022-10-31T08:11:32;93752.44;;;15.26;59.79
39789;BME280;25478;42.626;23.320;2022-10-31T08:14:00;93750.88;;;15.36;59.33
39789;BME280;25478;42.626;23.320;2022-10-31T08:16:26;93754.22;;;15.51;59.10
39789;BME280;25478;42.626;23.320;2022-10-31T08:18:59;93751.97;;;15.49;58.88
39789;BME280;25478;42.626;23.320;2022-10-31T08:21:27;93756.84;;;15.61;58.80
39789;BME280;25478;42.626;23.320;2022-10-31T08:23:52;93763.19;;;15.78;58.74
39789;BME280;25478;42.626;23.320;2022-10-31T08:26:20;93761.59;;;15.88;59.07
39789;BME280;25478;42.626;23.320;2022-10-31T08:28:48;93749.03;;;15.95;59.28
39789;BME280;25478;42.626;23.320;2022-10-31T08:31:15;93745.19;;;16.00;58.15
39789;BME280;25478;42.626;23.320;2022-10-31T08:33:40;93758.69;;;16.20;57.74
39789;BME280;25478;42.626;23.320;2022-10-31T08:36:18;93746.91;;;16.21;57.33
39789;BME280;25478;42.626;23.320;2022-10-31T08:39:22;93771.81;;;16.41;57.09
39789;BME280;25478;42.626;23.320;2022-10-31T08:41:50;93764.53;;;16.45;56.85
39789;BME280;25478;42.626;23.320;2022-10-31T08:44:16;93776.91;;;16.63;56.22
39789;BME280;25478;42.626;23.320;2022-10-31T08:46:42;93757.97;;;16.60;55.98
39789;BME280;25478;42.626;23.320;2022-10-31T08:49:08;93777.97;;;16.76;55.55
39789;BME280;25478;42.626;23.320;2022-10-31T08:51:33;93755.66;;;16.63;55.71
39789;BME280;25478;42.626;23.320;2022-10-31T08:54:00;93754.50;;;16.64;55.44
39789;BME280;25478;42.626;23.320;2022-10-31T08:56:31;93767.25;;;16.83;55.18
39789;BME280;25478;42.626;23.320;2022-10-31T08:58:58;93740.41;;;16.70;54.95
39789;BME280;25478;42.626;23.320;2022-10-31T09:01:32;93761.13;;;16.86;55.17
39789;BME280;25478;42.626;23.320;2022-10-31T09:03:58;93782.50;;;17.13;55.08
39789;BME280;25478;42.626;23.320;2022-10-31T09:06:24;93760.81;;;17.14;54.61
39789;BME280;25478;42.626;23.320;2022-10-31T09:08:50;93745.50;;;17.22;54.60
39789;BME280;25478;42.626;23.320;2022-10-31T09:11:15;93765.44;;;17.41;54.14
39789;BME280;25478;42.626;23.320;2022-10-31T09:14:13;93759.22;;;17.51;53.98
39789;BME280;25478;42.626;23.320;2022-10-31T09:17:01;93746.91;;;17.61;53.72
39789;BME280;25478;42.626;23.320;2022-10-31T09:19:42;93731.59;;;17.68;53.00
39789;BME280;25478;42.626;23.320;2022-10-31T09:22:08;93742.31;;;17.92;52.72
39789;BME280;25478;42.626;23.320;2022-10-31T09:24:33;93752.97;;;18.15;51.78
39789;BME280;25478;42.626;23.320;2022-10-31T09:26:59;93764.16;;;18.30;51.32
39789;BME280;25478;42.626;23.320;2022-10-31T09:29:27;93750.28;;;18.42;50.01
39789;BME280;25478;42.626;23.320;2022-10-31T09:31:57;93755.72;;;18.59;49.99
39789;BME280;25478;42.626;23.320;2022-10-31T09:34:27;93758.47;;;18.75;49.97
39789;BME280;25478;42.626;23.320;2022-10-31T09:37:04;93751.63;;;18.74;49.73
39789;BME280;25478;42.626;23.320;2022-10-31T09:39:29;93747.63;;;18.86;49.15
39789;BME280;25478;42.626;23.320;2022-10-31T09:50:51;93765.91;;;19.27;49.44
39789;BME280;25478;42.626;23.320;2022-10-31T09:53:51;93769.44;;;19.40;48.24
39789;BME280;25478;42.626;23.320;2022-10-31T09:56:22;93755.19;;;19.47;47.83
39789;BME280;25478;42.626;23.320;2022-10-31T09:58:53;93765.47;;;19.68;47.15
39789;BME280;25478;42.626;23.320;2022-10-31T10:01:38;93753.84;;;19.75;46.23
39789;BME280;25478;42.626;23.320;2022-10-31T10:07:11;93730.56;;;19.75;46.06
39789;BME280;25478;42.626;23.320;2022-10-31T10:09:42;93736.84;;;19.85;45.68
39789;BME280;25478;42.626;23.320;2022-10-31T10:20:49;93744.25;;;20.26;44.08
39789;BME280;25478;42.626;23.320;2022-10-31T10:24:22;93746.53;;;20.28;44.36
39789;BME280;25478;42.626;23.320;2022-10-31T10:26:41;93719.38;;;20.29;43.72
39789;BME280;25478;42.626;23.320;2022-10-31T10:29:29;93725.22;;;20.40;43.00
39789;BME280;25478;42.626;23.320;2022-10-31T10:32:01;93733.34;;;20.53;42.98
39789;BME280;25478;42.626;23.320;2022-10-31T10:34:34;93735.16;;;20.56;42.74
39789;BME280;25478;42.626;23.320;2022-10-31T10:37:15;93693.13;;;20.40;42.62
39789;BME280;25478;42.626;23.320;2022-10-31T10:39:45;93710.16;;;20.63;42.15
39789;BME280;25478;42.626;23.320;2022-10-31T10:42:14;93706.63;;;20.66;42.27
39789;BME280;25478;42.626;23.320;2022-10-31T10:45:00;93685.34;;;20.62;41.89
39789;BME280;25478;42.626;23.320;2022-10-31T10:47:57;93707.47;;;20.92;41.60
39789;BME280;25478;42.626;23.320;2022-10-31T10:50:35;93722.59;;;20.98;41.32
39789;BME280;25478;42.626;23.320;2022-10-31T10:53:22;93720.56;;;21.02;41.25
39789;BME280;25478;42.626;23.320;2022-10-31T10:56:19;93698.81;;;21.00;41.85
39789;BME280;25478;42.626;23.320;2022-10-31T10:58:47;93692.63;;;21.03;41.29
39789;BME280;25478;42.626;23.320;2022-10-31T11:01:14;93722.59;;;21.27;40.52
39789;BME280;25478;42.626;23.320;2022-10-31T11:03:41;93704.75;;;21.21;40.52
39789;BME280;25478;42.626;23.320;2022-10-31T11:06:17;93701.97;;;21.24;40.57
39789;BME280;25478;42.626;23.320;2022-10-31T11:08:43;93710.91;;;21.34;40.14
39789;BME280;25478;42.626;23.320;2022-10-31T11:13:41;93698.25;;;21.34;40.27
39789;BME280;25478;42.626;23.320;2022-10-31T11:16:35;93703.31;;;21.45;40.81
39789;BME280;25478;42.626;23.320;2022-10-31T11:19:16;93706.94;;;21.51;40.45
39789;BME280;25478;42.626;23.320;2022-10-31T11:21:43;93679.31;;;21.42;40.03
39789;BME280;25478;42.626;23.320;2022-10-31T11:26:40;93694.09;;;21.59;39.96
39789;BME280;25478;42.626;23.320;2022-10-31T11:29:25;93690.78;;;21.55;39.84
39789;BME280;25478;42.626;23.320;2022-10-31T11:31:59;93693.78;;;21.44;39.93
39789;BME280;25478;42.626;23.320;2022-10-31T11:34:35;93619.94;;;21.05;40.08
39789;BME280;25478;42.626;23.320;2022-10-31T11:37:09;93689.38;;;21.50;39.39
39789;BME280;25478;42.626;23.320;2022-10-31T11:39:41;93658.53;;;21.33;39.52
39789;BME280;25478;42.626;23.320;2022-10-31T11:42:07;93667.97;;;21.38;39.69
39789;BME280;25478;42.626;23.320;2022-10-31T11:44:33;93682.84;;;21.51;39.60
39789;BME280;25478;42.626;23.320;2022-10-31T11:47:02;93667.63;;;21.48;39.67
39789;BME280;25478;42.626;23.320;2022-10-31T11:49:43;93678.56;;;21.54;39.64
39789;BME280;25478;42.626;23.320;2022-10-31T11:52:18;93676.75;;;21.51;39.56
39789;BME280;25478;42.626;23.320;2022-10-31T11:54:49;93657.25;;;21.38;39.55
39789;BME280;25478;42.626;23.320;2022-10-31T11:57:32;93667.53;;;21.52;39.60
39789;BME280;25478;42.626;23.320;2022-10-31T12:00:03;93665.38;;;21.59;40.00
39789;BME280;25478;42.626;23.320;2022-10-31T12:02:37;93656.41;;;21.53;39.47
39789;BME280;25478;42.626;23.320;2022-10-31T12:07:42;93659.19;;;21.62;39.36
39789;BME280;25478;42.626;23.320;2022-10-31T12:10:11;93649.66;;;21.61;39.62
39789;BME280;25478;42.626;23.320;2022-10-31T12:12:44;93667.31;;;21.72;39.46
39789;BME280;25478;42.626;23.320;2022-10-31T12:15:32;93663.13;;;21.71;39.23
39789;BME280;25478;42.626;23.320;2022-10-31T12:23:55;93645.25;;;21.42;39.75
39789;BME280;25478;42.626;23.320;2022-10-31T12:27:12;93642.25;;;21.27;40.30
39789;BME280;25478;42.626;23.320;2022-10-31T12:42:56;93663.13;;;20.78;41.33
39789;BME280;25478;42.626;23.320;2022-10-31T12:56:10;93653.16;;;20.20;42.98
39789;BME280;25478;42.626;23.320;2022-10-31T12:58:46;93660.91;;;20.15;43.48
39789;BME280;25478;42.626;23.320;2022-10-31T13:01:17;93643.25;;;19.88;43.88
39789;BME280;25478;42.626;23.320;2022-10-31T13:04:00;93653.34;;;19.81;44.01
39789;BME280;25478;42.626;23.320;2022-10-31T13:06:34;93664.94;;;19.74;44.34
39789;BME280;25478;42.626;23.320;2022-10-31T13:09:05;93650.16;;;19.53;44.54
39789;BME280;25478;42.626;23.320;2022-10-31T13:11:49;93642.53;;;19.35;44.81
39789;BME280;25478;42.626;23.320;2022-10-31T13:14:26;93657.47;;;19.33;45.03
39789;BME280;25478;42.626;23.320;2022-10-31T13:16:55;93652.69;;;19.24;45.37
39789;BME280;25478;42.626;23.320;2022-10-31T13:19:25;93633.16;;;19.11;45.55
39789;BME280;25478;42.626;23.320;2022-10-31T13:22:17;93664.88;;;19.25;45.54
39789;BME280;25478;42.626;23.320;2022-10-31T13:27:24;93633.06;;;19.15;45.27
39789;BME280;25478;42.626;23.320;2022-10-31T13:30:21;93653.13;;;19.39;45.03
39789;BME280;25478;42.626;23.320;2022-10-31T13:32:53;93643.72;;;19.34;45.33
39789;BME280;25478;42.626;23.320;2022-10-31T13:41:04;93666.63;;;19.68;44.66
39789;BME280;25478;42.626;23.320;2022-10-31T13:46:43;93651.31;;;19.52;45.05
39789;BME280;25478;42.626;23.320;2022-10-31T13:52:14;93664.81;;;19.29;46.00
39789;BME280;25478;42.626;23.320;2022-10-31T13:57:31;93662.81;;;18.97;46.79
39789;BME280;25478;42.626;23.320;2022-10-31T14:00:02;93648.47;;;18.71;47.04
39789;BME280;25478;42.626;23.320;2022-10-31T14:02:37;93639.00;;;18.46;47.37
39789;BME280;25478;42.626;23.320;2022-10-31T14:05:29;93666.69;;;18.52;47.47
39789;BME280;25478;42.626;23.320;2022-10-31T14:07:59;93655.19;;;18.36;47.87
39789;BME280;25478;42.626;23.320;2022-10-31T14:13:20;93666.91;;;18.18;48.49
39789;BME280;25478;42.626;23.320;2022-10-31T14:16:00;93667.88;;;18.08;48.88
39789;BME280;25478;42.626;23.320;2022-10-31T14:18:32;93668.38;;;17.99;49.11
39789;BME280;25478;42.626;23.320;2022-10-31T14:20:58;93664.03;;;17.86;49.44
39789;BME280;25478;42.626;23.320;2022-10-31T14:23:37;93651.69;;;17.72;49.55
39789;BME280;25478;42.626;23.320;2022-10-31T14:28:43;93675.31;;;17.70;50.05
39789;BME280;25478;42.626;23.320;2022-10-31T14:31:35;93668.16;;;17.63;49.79
39789;BME280;25478;42.626;23.320;2022-10-31T14:34:21;93652.44;;;17.45;50.20
39789;BME280;25478;42.626;23.320;2022-10-31T14:51:13;93638.75;;;16.93;51.43
39789;BME280;25478;42.626;23.320;2022-10-31T14:53:52;93633.56;;;16.82;51.72
39789;BME280;25478;42.626;23.320;2022-10-31T14:56:25;93657.00;;;16.91;52.11
39789;BME280;25478;42.626;23.320;2022-10-31T14:58:52;93671.97;;;16.78;52.00
39789;BME280;25478;42.626;23.320;2022-10-31T15:03:47;93649.38;;;16.59;52.63
39789;BME280;25478;42.626;23.320;2022-10-31T15:06:16;93648.66;;;16.55;52.58
39789;BME280;25478;42.626;23.320;2022-10-31T15:08:48;93653.28;;;16.51;52.89
39789;BME280;25478;42.626;23.320;2022-10-31T15:11:15;93678.63;;;16.59;53.40
39789;BME280;25478;42.626;23.320;2022-10-31T15:14:05;93675.69;;;16.50;53.35
39789;BME280;25478;42.626;23.320;2022-10-31T15:16:33;93655.38;;;16.29;53.60
39789;BME280;25478;42.626;23.320;2022-10-31T15:19:03;93666.75;;;16.29;53.90
39789;BME280;25478;42.626;23.320;2022-10-31T15:21:29;93654.41;;;16.12;53.70
39789;BME280;25478;42.626;23.320;2022-10-31T15:23:57;93683.91;;;16.25;53.94
39789;BME280;25478;42.626;23.320;2022-10-31T15:26:37;93680.91;;;16.19;54.09